sim
Sign-in with your pilot id or email,
or register
Callsign
Passwort

Schedule Details

Flight Number: RYR1066 (3)
Departure: Athens Eleftherios Venizelos (LGAV) at 04:40
Arrival: Thessaloniki International Airport (LGTS) at 05:40
Route: Ryanair Passenger Schedule. Enter filed route here before submitting Pirep.

Weather Information
Getting current METAR information for LGAV 252150Z VRB01KT 9999 FEW030 14/12 Q1021 NOSIG
Getting current METAR information for LGTS 252150Z 00000KT CAVOK 15/12 Q1020 NOSIG

Schedule Frequency

Route Map